Time;durP1;ratioP1;P1;durP2;ratioP2;P2;SDS_P1;SDS_P2;PMS_P1;PMS_P2;Temp;Humidity;BMP_temperature;BMP_pressure;BME280_temperature;BME280_humidity;BME280_pressure;Samples;Min_cycle;Max_cycle;Signal;HPM_P1;HPM_P2
2023/12/05 00:01:11;;;;;;;34.63;16.20;;;6.50;99.90;;;;;;4946114;29;20478;-87
2023/12/05 00:03:36;;;;;;;32.70;14.82;;;6.50;99.90;;;;;;4948701;28;20062;-87
2023/12/05 00:09:25;;;;;;;34.15;15.05;;;6.50;99.90;;;;;;4950243;29;20090;-87
2023/12/05 00:11:50;;;;;;;35.40;16.52;;;6.50;99.90;;;;;;4951343;28;20513;-87
2023/12/05 00:14:16;;;;;;;30.45;15.77;;;6.50;99.90;;;;;;4961826;28;20023;-86
2023/12/05 00:16:41;;;;;;;39.42;16.25;;;6.50;99.90;;;;;;4953449;28;20040;-87
2023/12/05 00:19:07;;;;;;;36.00;17.52;;;6.50;99.90;;;;;;4952342;28;20031;-87
2023/12/05 00:21:32;;;;;;;31.00;15.45;;;6.50;99.90;;;;;;4949843;29;20023;-87
2023/12/05 00:23:58;;;;;;;35.90;16.02;;;6.50;99.90;;;;;;4965680;28;20035;-86
2023/12/05 00:26:23;;;;;;;34.75;16.00;;;6.50;99.90;;;;;;4950220;29;20027;-87
2023/12/05 00:28:49;;;;;;;34.30;16.38;;;6.50;99.90;;;;;;4951382;28;20161;-86
2023/12/05 00:31:14;;;;;;;34.00;16.80;;;6.50;99.90;;;;;;4948797;29;20098;-86
2023/12/05 00:33:40;;;;;;;43.15;17.38;;;6.50;99.90;;;;;;4953694;28;20667;-86
2023/12/05 00:36:06;;;;;;;32.67;16.75;;;6.50;99.90;;;;;;4946633;29;20521;-88
2023/12/05 00:38:31;;;;;;;33.15;16.58;;;6.50;99.90;;;;;;4953151;28;20039;-86
2023/12/05 00:40:59;;;;;;;39.53;17.25;;;6.50;99.90;;;;;;4955853;28;20028;-87
2023/12/05 00:43:25;;;;;;;35.15;17.80;;;6.50;99.90;;;;;;4955375;28;20028;-87
2023/12/05 00:45:50;;;;;;;45.65;18.58;;;6.40;99.90;;;;;;4956007;28;20054;-87
2023/12/05 00:48:16;;;;;;;38.25;16.88;;;6.50;99.90;;;;;;4974842;28;20026;-88
2023/12/05 00:50:41;;;;;;;33.10;16.70;;;6.50;99.90;;;;;;4953520;28;20102;-85
2023/12/05 00:53:07;;;;;;;44.40;17.05;;;6.50;99.90;;;;;;4955574;28;20437;-87
2023/12/05 00:55:35;;;;;;;36.22;17.85;;;6.50;99.90;;;;;;4952562;29;20030;-87
2023/12/05 00:58:01;;;;;;;43.42;18.45;;;6.50;99.90;;;;;;4971407;28;20130;-87
2023/12/05 01:00:26;;;;;;;41.35;18.60;;;6.50;99.90;;;;;;4967345;28;20254;-87
2023/12/05 01:02:52;;;;;;;43.17;17.88;;;6.50;99.90;;;;;;4965783;28;20630;-86
2023/12/05 01:05:17;;;;;;;40.67;18.70;;;6.40;99.90;;;;;;4969741;28;20478;-87
2023/12/05 01:07:43;;;;;;;34.20;17.67;;;6.50;99.90;;;;;;4950831;28;20027;-87
2023/12/05 01:10:09;;;;;;;48.08;19.27;;;6.50;99.90;;;;;;4957085;28;20019;-86
2023/12/05 01:12:35;;;;;;;37.70;18.15;;;6.50;99.90;;;;;;4954864;28;20441;-87
2023/12/05 01:15:00;;;;;;;38.40;18.60;;;6.50;99.90;;;;;;4952309;29;20036;-87
2023/12/05 01:17:26;;;;;;;41.83;17.25;;;6.50;99.90;;;;;;4952457;29;20651;-85
2023/12/05 01:19:51;;;;;;;37.92;17.55;;;6.50;99.90;;;;;;4951923;29;20553;-87
2023/12/05 01:22:17;;;;;;;37.45;17.13;;;6.50;99.90;;;;;;4950198;28;20048;-87
2023/12/05 01:24:42;;;;;;;41.38;17.20;;;6.50;99.90;;;;;;4952445;29;20023;-87
2023/12/05 01:27:08;;;;;;;41.10;17.25;;;6.50;99.90;;;;;;4951606;29;20015;-85
2023/12/05 01:29:34;;;;;;;34.17;16.25;;;6.50;99.90;;;;;;4950660;28;20030;-87
2023/12/05 01:31:59;;;;;;;37.55;16.55;;;6.50;99.90;;;;;;4955599;28;20166;-87
2023/12/05 01:34:25;;;;;;;34.22;16.00;;;6.50;99.90;;;;;;4954669;28;20118;-87
2023/12/05 01:36:50;;;;;;;35.60;15.90;;;6.50;99.90;;;;;;4950821;28;20042;-86
2023/12/05 01:39:16;;;;;;;27.98;14.95;;;6.50;99.90;;;;;;4956067;28;20035;-87
2023/12/05 01:41:42;;;;;;;27.35;15.40;;;6.50;99.90;;;;;;4954110;28;20036;-87
2023/12/05 01:44:07;;;;;;;32.80;16.23;;;6.50;99.90;;;;;;4950042;28;20023;-87
2023/12/05 01:46:34;;;;;;;35.30;14.85;;;6.50;99.90;;;;;;4951857;28;20135;-86
2023/12/05 01:48:59;;;;;;;36.28;16.40;;;6.50;99.90;;;;;;4954799;28;20031;-86
2023/12/05 01:51:27;;;;;;;38.28;15.90;;;6.50;99.90;;;;;;4948953;28;20031;-88
2023/12/05 01:53:52;;;;;;;30.80;14.85;;;6.50;99.90;;;;;;4951632;28;20525;-86
2023/12/05 01:56:18;;;;;;;36.10;15.23;;;6.50;99.90;;;;;;4950229;28;20095;-86
2023/12/05 01:58:44;;;;;;;31.58;15.32;;;6.50;99.90;;;;;;4952694;28;20027;-87
2023/12/05 02:01:12;;;;;;;30.83;13.95;;;6.50;99.90;;;;;;4948689;29;20023;-88
2023/12/05 02:03:39;;;;;;;27.73;13.90;;;6.50;99.90;;;;;;4954208;28;20034;-87
2023/12/05 02:06:05;;;;;;;28.92;14.27;;;6.50;99.90;;;;;;4956294;28;20059;-87
2023/12/05 02:08:33;;;;;;;30.63;14.82;;;6.50;99.90;;;;;;4953875;28;20392;-87
2023/12/05 02:10:59;;;;;;;32.53;15.55;;;6.50;99.90;;;;;;4951610;29;20031;-87
2023/12/05 02:13:24;;;;;;;30.92;14.57;;;6.50;99.90;;;;;;4947723;28;20448;-87
2023/12/05 02:16:16;;;;;;;29.63;14.07;;;6.50;99.90;;;;;;4952596;29;20039;-87
2023/12/05 02:18:53;;;;;;;30.15;13.10;;;6.50;99.90;;;;;;4944475;28;20039;-86
2023/12/05 02:21:24;;;;;;;29.83;12.77;;;6.50;99.90;;;;;;4967918;28;20023;-86
2023/12/05 02:23:56;;;;;;;29.15;13.85;;;6.50;99.90;;;;;;4952625;28;20453;-86
2023/12/05 02:26:39;;;;;;;28.30;12.88;;;6.50;99.90;;;;;;4967289;28;20030;-87
2023/12/05 02:29:05;;;;;;;24.83;12.90;;;6.50;99.90;;;;;;4965026;28;20027;-88
2023/12/05 02:31:30;;;;;;;29.48;12.88;;;6.50;99.90;;;;;;4953813;28;20042;-87
2023/12/05 02:33:56;;;;;;;30.20;13.18;;;6.50;99.90;;;;;;4951807;28;20038;-87
2023/12/05 02:36:39;;;;;;;28.02;12.60;;;6.50;99.90;;;;;;4958716;28;20035;-87
2023/12/05 02:39:15;;;;;;;22.23;10.55;;;6.50;99.90;;;;;;4966257;28;20098;-87
2023/12/05 02:41:45;;;;;;;27.17;11.80;;;6.50;99.90;;;;;;4962977;28;20489;-87
2023/12/05 02:44:12;;;;;;;25.85;11.35;;;6.50;99.90;;;;;;4949620;28;20454;-88
2023/12/05 02:46:41;;;;;;;24.23;11.32;;;6.50;99.90;;;;;;4964920;28;20034;-88
2023/12/05 02:49:09;;;;;;;33.35;13.38;;;6.40;99.90;;;;;;4952163;28;20026;-86
2023/12/05 02:51:35;;;;;;;30.23;12.15;;;6.50;99.90;;;;;;4967452;28;20078;-88
2023/12/05 02:54:03;;;;;;;22.83;11.43;;;6.50;99.90;;;;;;4950697;28;20027;-86
2023/12/05 02:56:29;;;;;;;26.45;11.13;;;6.50;99.90;;;;;;4949211;29;20082;-88
2023/12/05 02:58:55;;;;;;;24.92;11.80;;;6.50;99.90;;;;;;4949271;28;20023;-86
2023/12/05 03:01:20;;;;;;;29.00;13.13;;;6.50;99.90;;;;;;4953454;28;20099;-87
2023/12/05 03:03:46;;;;;;;26.60;12.80;;;6.50;99.90;;;;;;4946430;28;20039;-87
2023/12/05 03:06:11;;;;;;;28.75;12.48;;;6.50;99.90;;;;;;4952440;28;20134;-87
2023/12/05 03:08:37;;;;;;;25.25;11.57;;;6.50;99.90;;;;;;4952082;28;20094;-86
2023/12/05 03:11:02;;;;;;;27.33;11.38;;;6.50;99.90;;;;;;4952182;28;20552;-87
2023/12/05 03:13:28;;;;;;;28.15;12.43;;;6.50;99.90;;;;;;4951221;28;20110;-87
2023/12/05 03:15:53;;;;;;;24.55;10.77;;;6.50;99.90;;;;;;4946923;29;20027;-87
2023/12/05 03:18:19;;;;;;;28.45;11.93;;;6.50;99.90;;;;;;4966240;28;20586;-87
2023/12/05 03:20:44;;;;;;;28.95;13.18;;;6.50;99.90;;;;;;4953478;28;20038;-88
2023/12/05 03:23:10;;;;;;;29.27;11.65;;;6.50;99.90;;;;;;4950936;28;20031;-87
2023/12/05 03:25:35;;;;;;;23.23;11.15;;;6.50;99.90;;;;;;4950274;29;20514;-86
2023/12/05 03:28:01;;;;;;;25.60;11.25;;;6.50;99.90;;;;;;4948499;28;20090;-86
2023/12/05 03:30:26;;;;;;;26.40;10.77;;;6.50;99.90;;;;;;4958465;28;20807;-87
2023/12/05 03:32:52;;;;;;;31.55;12.20;;;6.50;99.90;;;;;;4949356;28;20058;-87
2023/12/05 03:35:18;;;;;;;26.15;10.38;;;6.60;99.90;;;;;;4953299;28;20023;-87
2023/12/05 03:37:43;;;;;;;25.70;10.70;;;6.50;99.90;;;;;;4948034;28;20075;-87
2023/12/05 03:40:09;;;;;;;21.75;10.52;;;6.60;99.90;;;;;;4960760;28;20063;-86
2023/12/05 03:42:35;;;;;;;21.17;10.52;;;6.60;99.90;;;;;;4950523;28;20049;-87
2023/12/05 03:45:00;;;;;;;21.90;9.90;;;6.60;99.90;;;;;;4960023;28;20058;-87
2023/12/05 03:47:26;;;;;;;27.25;11.10;;;6.60;99.90;;;;;;4971327;28;20058;-87
2023/12/05 03:49:52;;;;;;;20.83;9.80;;;6.60;99.90;;;;;;4953659;28;20061;-87
2023/12/05 03:52:18;;;;;;;24.25;10.60;;;6.50;99.90;;;;;;4951094;29;20031;-87
2023/12/05 03:54:43;;;;;;;25.15;10.82;;;6.50;99.90;;;;;;4953707;28;20039;-87
2023/12/05 03:57:09;;;;;;;20.50;9.88;;;6.50;99.90;;;;;;4950837;28;20027;-87
2023/12/05 03:59:34;;;;;;;26.05;11.05;;;6.50;99.90;;;;;;4954342;28;20023;-87
2023/12/05 04:02:00;;;;;;;22.42;10.00;;;6.60;99.90;;;;;;4967732;28;20027;-88
2023/12/05 04:04:25;;;;;;;22.60;10.60;;;6.60;99.90;;;;;;4951757;28;20154;-89
2023/12/05 04:06:51;;;;;;;19.42;9.68;;;6.60;99.90;;;;;;4953235;28;20106;-87
2023/12/05 04:09:17;;;;;;;23.98;10.73;;;6.60;99.90;;;;;;4950430;28;20016;-88
2023/12/05 04:11:43;;;;;;;22.40;10.68;;;6.50;99.90;;;;;;4954411;28;20047;-90
2023/12/05 04:14:08;;;;;;;21.85;10.43;;;6.60;99.90;;;;;;4951158;28;20020;-87
2023/12/05 04:16:35;;;;;;;23.42;10.75;;;6.50;99.90;;;;;;4958553;28;20449;-89
2023/12/05 04:19:01;;;;;;;19.63;9.93;;;6.50;99.90;;;;;;4954589;28;20027;-87
2023/12/05 04:21:26;;;;;;;21.70;10.52;;;6.50;99.90;;;;;;4956048;28;20033;-89
2023/12/05 04:23:52;;;;;;;21.05;10.48;;;6.50;99.90;;;;;;4957339;28;20501;-89
2023/12/05 04:26:19;;;;;;;24.42;10.50;;;6.60;99.90;;;;;;4957361;28;20016;-87
2023/12/05 04:28:45;;;;;;;20.83;10.27;;;6.50;99.90;;;;;;4951675;28;20056;-87
2023/12/05 04:31:14;;;;;;;20.42;9.82;;;6.50;99.90;;;;;;4962080;28;20643;-88
2023/12/05 04:33:40;;;;;;;26.23;11.77;;;6.60;99.90;;;;;;4981920;28;20485;-87
2023/12/05 04:36:07;;;;;;;21.17;10.25;;;6.50;99.90;;;;;;4953853;28;20114;-90
2023/12/05 04:38:37;;;;;;;26.58;10.13;;;6.50;99.90;;;;;;4960836;28;20055;-87
2023/12/05 04:41:02;;;;;;;25.77;10.57;;;6.60;99.90;;;;;;4956736;28;20474;-89
2023/12/05 04:43:32;;;;;;;23.45;11.23;;;6.60;99.90;;;;;;4960640;28;20263;-89
2023/12/05 04:45:57;;;;;;;25.00;10.55;;;6.50;99.90;;;;;;4969869;28;20114;-89
2023/12/05 04:48:23;;;;;;;25.00;10.90;;;6.50;99.90;;;;;;4953553;29;20549;-87
2023/12/05 04:50:48;;;;;;;20.00;9.50;;;6.60;99.90;;;;;;4954399;29;20544;-88
2023/12/05 04:53:14;;;;;;;25.27;10.02;;;6.60;99.90;;;;;;4954368;28;20053;-88
2023/12/05 04:55:40;;;;;;;19.10;10.02;;;6.50;99.90;;;;;;4954167;29;20486;-88
2023/12/05 04:58:05;;;;;;;26.75;10.77;;;6.60;99.90;;;;;;4947139;29;20074;-89
2023/12/05 05:00:32;;;;;;;20.70;10.35;;;6.60;99.90;;;;;;4963891;28;20090;-88
2023/12/05 05:02:57;;;;;;;21.15;9.82;;;6.60;99.90;;;;;;4952010;28;20027;-88
2023/12/05 05:05:23;;;;;;;24.65;10.05;;;6.60;99.90;;;;;;4963359;28;20035;-87
2023/12/05 05:07:48;;;;;;;24.25;10.73;;;6.50;99.90;;;;;;4952949;28;20023;-86
2023/12/05 05:10:14;;;;;;;23.05;9.68;;;6.60;99.90;;;;;;4967226;28;20023;-87
2023/12/05 05:12:39;;;;;;;21.58;9.75;;;6.60;99.90;;;;;;4952002;28;20541;-87
2023/12/05 05:15:05;;;;;;;23.15;10.07;;;6.60;99.90;;;;;;4972721;28;20022;-87
2023/12/05 05:17:31;;;;;;;25.02;10.60;;;6.60;99.90;;;;;;4950359;29;20466;-86
2023/12/05 05:19:57;;;;;;;26.25;9.88;;;6.60;99.90;;;;;;4951295;29;20069;-87
2023/12/05 05:22:22;;;;;;;19.52;9.90;;;6.60;99.90;;;;;;4955735;28;20128;-86
2023/12/05 05:24:48;;;;;;;24.45;9.93;;;6.60;99.90;;;;;;4966092;28;20675;-88
2023/12/05 05:27:13;;;;;;;22.98;10.10;;;6.60;99.90;;;;;;4968689;28;20035;-87
2023/12/05 05:29:39;;;;;;;24.55;10.35;;;6.60;99.90;;;;;;4958525;28;20055;-87
2023/12/05 05:32:05;;;;;;;19.67;9.82;;;6.50;99.90;;;;;;4956024;28;20031;-88
2023/12/05 05:34:30;;;;;;;18.85;9.32;;;6.50;99.90;;;;;;4968084;28;20083;-88
2023/12/05 05:36:56;;;;;;;24.95;9.77;;;6.50;99.90;;;;;;4950708;28;20031;-87
2023/12/05 05:39:21;;;;;;;19.63;9.48;;;6.60;99.90;;;;;;4973781;28;20030;-87
2023/12/05 05:41:47;;;;;;;23.13;9.57;;;6.50;99.90;;;;;;4951872;28;20031;-87
2023/12/05 05:44:12;;;;;;;25.08;9.10;;;6.60;99.90;;;;;;4956041;28;20028;-86
2023/12/05 05:46:38;;;;;;;22.33;9.93;;;6.60;99.90;;;;;;4955852;28;20028;-87
2023/12/05 05:49:04;;;;;;;19.45;9.27;;;6.60;99.90;;;;;;4953980;28;20074;-87
2023/12/05 05:51:29;;;;;;;24.23;10.02;;;6.60;99.90;;;;;;4950210;28;20022;-87
2023/12/05 05:53:55;;;;;;;19.00;10.27;;;6.60;99.90;;;;;;4951971;28;20031;-88
2023/12/05 05:56:22;;;;;;;22.65;9.88;;;6.60;99.90;;;;;;4950622;28;20413;-88
2023/12/05 05:58:48;;;;;;;23.48;9.85;;;6.60;99.90;;;;;;4955903;28;20063;-88
2023/12/05 06:01:13;;;;;;;25.48;10.60;;;6.60;99.90;;;;;;4961018;28;20132;-88
2023/12/05 06:03:40;;;;;;;19.15;10.02;;;6.60;99.90;;;;;;4971683;28;20110;-88
2023/12/05 06:06:06;;;;;;;21.55;10.45;;;6.60;99.90;;;;;;4952564;29;20377;-88
2023/12/05 06:08:32;;;;;;;20.02;10.10;;;6.50;99.90;;;;;;4952744;29;20023;-89
2023/12/05 06:10:57;;;;;;;21.63;10.60;;;6.60;99.90;;;;;;4952542;29;20066;-88
2023/12/05 06:13:23;;;;;;;24.60;10.18;;;6.60;99.90;;;;;;4945260;29;20031;-88
2023/12/05 06:15:49;;;;;;;22.73;10.55;;;6.60;99.90;;;;;;4955743;28;20023;-88
2023/12/05 06:18:17;;;;;;;25.92;10.15;;;6.50;99.90;;;;;;4951939;28;20019;-87
2023/12/05 06:20:43;;;;;;;23.25;11.18;;;6.60;99.90;;;;;;4965806;28;20038;-88
2023/12/05 06:23:09;;;;;;;20.67;9.07;;;6.60;99.90;;;;;;4950869;28;20031;-86
2023/12/05 06:25:34;;;;;;;24.80;9.90;;;6.50;99.90;;;;;;4948466;29;20091;-88
2023/12/05 06:28:00;;;;;;;18.92;9.63;;;6.60;99.90;;;;;;4950400;28;20387;-87
2023/12/05 06:30:26;;;;;;;21.05;9.85;;;6.60;99.90;;;;;;4959772;28;20027;-88
2023/12/05 06:32:51;;;;;;;22.63;9.98;;;6.60;99.90;;;;;;4949795;28;20096;-88
2023/12/05 06:35:17;;;;;;;24.83;9.90;;;6.50;99.90;;;;;;4975680;28;20101;-87
2023/12/05 06:37:42;;;;;;;26.98;10.30;;;6.50;99.90;;;;;;4962571;28;20030;-89
2023/12/05 06:40:08;;;;;;;22.88;10.60;;;6.50;99.90;;;;;;4957800;28;20035;-87
2023/12/05 06:42:34;;;;;;;25.30;10.20;;;6.50;99.90;;;;;;4949618;28;20027;-88
2023/12/05 06:45:00;;;;;;;20.88;10.23;;;6.50;99.90;;;;;;4951503;28;20031;-88
2023/12/05 06:47:27;;;;;;;24.65;10.30;;;6.50;99.90;;;;;;4966898;28;20030;-89
2023/12/05 06:49:52;;;;;;;19.75;9.75;;;6.50;99.90;;;;;;4953047;28;20039;-87
2023/12/05 06:52:19;;;;;;;25.10;10.68;;;6.50;99.90;;;;;;4963921;28;20050;-88
2023/12/05 06:54:45;;;;;;;19.10;9.15;;;6.50;99.90;;;;;;4949291;28;20024;-87
2023/12/05 06:57:11;;;;;;;22.13;10.07;;;6.50;99.90;;;;;;4949681;28;20027;-86
2023/12/05 06:59:37;;;;;;;21.90;10.00;;;6.50;99.90;;;;;;4957244;28;20102;-88
2023/12/05 07:02:03;;;;;;;24.05;9.68;;;6.50;99.90;;;;;;4949515;28;20031;-87
2023/12/05 07:04:28;;;;;;;20.75;9.18;;;6.50;99.90;;;;;;4951437;28;20043;-87
2023/12/05 07:06:54;;;;;;;23.27;11.30;;;6.50;99.90;;;;;;4974958;28;20027;-89
2023/12/05 07:09:20;;;;;;;25.35;11.05;;;6.50;99.90;;;;;;4951618;28;20079;-87
2023/12/05 07:11:45;;;;;;;18.90;9.27;;;6.50;99.90;;;;;;4947918;29;20501;-87
2023/12/05 07:14:13;;;;;;;19.15;9.52;;;6.60;99.90;;;;;;4966983;28;20030;-87
2023/12/05 07:16:38;;;;;;;19.08;8.93;;;6.60;99.90;;;;;;4968443;28;20548;-87
2023/12/05 07:19:04;;;;;;;19.50;9.00;;;6.60;99.90;;;;;;4957737;28;20031;-87
2023/12/05 07:21:30;;;;;;;21.05;9.35;;;6.60;99.90;;;;;;4955981;28;20028;-88
2023/12/05 07:23:56;;;;;;;19.48;9.13;;;6.60;99.90;;;;;;4954529;28;20051;-87
2023/12/05 07:26:21;;;;;;;17.95;9.63;;;6.60;99.90;;;;;;4972185;28;20023;-88
2023/12/05 07:28:47;;;;;;;24.77;9.85;;;6.60;99.90;;;;;;4949299;29;20655;-87
2023/12/05 07:31:12;;;;;;;25.88;9.20;;;6.60;99.90;;;;;;4965620;28;20433;-87
2023/12/05 07:33:38;;;;;;;20.27;10.13;;;6.60;99.90;;;;;;4966889;28;20666;-88
2023/12/05 07:36:05;;;;;;;22.92;9.25;;;6.60;99.90;;;;;;4950853;29;20031;-88
2023/12/05 07:38:30;;;;;;;18.52;8.88;;;6.60;99.90;;;;;;4966859;28;20023;-88
2023/12/05 07:40:56;;;;;;;23.02;9.98;;;6.60;99.90;;;;;;4947698;28;20401;-87
2023/12/05 07:43:21;;;;;;;25.15;9.55;;;6.60;99.90;;;;;;4967338;28;20117;-90
2023/12/05 07:45:47;;;;;;;20.70;9.05;;;6.60;99.90;;;;;;4952182;28;20753;-91
2023/12/05 07:48:12;;;;;;;17.63;8.35;;;6.60;99.90;;;;;;4962323;28;20055;-91
2023/12/05 07:50:38;;;;;;;20.88;9.85;;;6.60;99.90;;;;;;4967483;28;20058;-91
2023/12/05 07:53:03;;;;;;;18.60;8.40;;;6.60;99.90;;;;;;4975912;28;20045;-91
2023/12/05 07:55:29;;;;;;;24.42;10.07;;;6.60;99.90;;;;;;4956668;28;20083;-91
2023/12/05 07:57:54;;;;;;;21.42;9.48;;;6.60;99.90;;;;;;4962295;28;20027;-90
2023/12/05 08:00:20;;;;;;;22.52;9.52;;;6.60;99.90;;;;;;4972910;28;20023;-87
2023/12/05 08:02:46;;;;;;;18.58;8.55;;;6.60;99.90;;;;;;4977101;28;20023;-90
2023/12/05 08:05:12;;;;;;;25.10;10.43;;;6.60;99.90;;;;;;4964695;28;20095;-89
2023/12/05 08:07:38;;;;;;;22.05;9.65;;;6.60;99.90;;;;;;4962971;28;20125;-86
2023/12/05 08:10:08;;;;;;;20.13;9.88;;;6.60;99.90;;;;;;4967411;28;20015;-91
2023/12/05 08:12:34;;;;;;;17.20;9.10;;;6.60;99.90;;;;;;4960478;28;20020;-89
2023/12/05 08:15:00;;;;;;;20.20;9.32;;;6.60;99.90;;;;;;4960612;28;20023;-90
2023/12/05 08:17:26;;;;;;;19.83;9.75;;;6.60;99.90;;;;;;4947727;28;20184;-90
2023/12/05 08:19:52;;;;;;;18.08;8.48;;;6.60;99.90;;;;;;4974669;28;20098;-89
2023/12/05 08:22:17;;;;;;;23.55;9.18;;;6.60;99.90;;;;;;4963808;28;20350;-87
2023/12/05 08:24:43;;;;;;;25.30;9.32;;;6.60;99.90;;;;;;4961012;28;20023;-90
2023/12/05 08:27:08;;;;;;;18.67;8.52;;;6.60;99.90;;;;;;4969153;28;20474;-90
2023/12/05 08:29:34;;;;;;;16.75;8.45;;;6.60;99.90;;;;;;4965062;28;20505;-88
2023/12/05 08:31:59;;;;;;;18.42;8.20;;;6.60;99.90;;;;;;4958337;28;20501;-88
2023/12/05 08:34:25;;;;;;;21.95;7.80;;;6.50;99.90;;;;;;4960768;28;20027;-88
2023/12/05 08:36:51;;;;;;;18.63;8.52;;;6.60;99.90;;;;;;4971931;28;20686;-86
2023/12/05 08:39:16;;;;;;;18.13;8.15;;;6.60;99.90;;;;;;4959118;28;20033;-89
2023/12/05 08:41:42;;;;;;;16.38;7.63;;;6.60;99.90;;;;;;4962779;28;20485;-87
2023/12/05 08:44:08;;;;;;;17.95;8.25;;;6.60;99.90;;;;;;4950959;28;20144;-88
2023/12/05 08:46:35;;;;;;;16.98;7.80;;;6.60;99.90;;;;;;4969789;28;20024;-89
2023/12/05 08:49:00;;;;;;;20.15;8.10;;;6.60;99.90;;;;;;4955174;28;20474;-89
2023/12/05 08:51:26;;;;;;;17.85;9.50;;;6.60;99.90;;;;;;4970291;28;20027;-89
2023/12/05 08:53:53;;;;;;;16.58;7.85;;;6.60;99.90;;;;;;4954778;28;20442;-88
2023/12/05 08:56:18;;;;;;;15.43;7.30;;;6.60;99.90;;;;;;4970367;28;20026;-87
2023/12/05 08:58:44;;;;;;;23.17;7.88;;;6.60;99.90;;;;;;4971781;28;20027;-87
2023/12/05 09:01:11;;;;;;;16.27;7.80;;;6.60;99.90;;;;;;4971515;28;20118;-88
2023/12/05 09:03:36;;;;;;;19.02;9.10;;;6.60;99.90;;;;;;4966636;28;20019;-90
2023/12/05 09:06:02;;;;;;;19.05;7.90;;;6.60;99.90;;;;;;4954947;28;20023;-88
2023/12/05 09:08:28;;;;;;;16.50;6.90;;;6.60;99.90;;;;;;4969879;28;20720;-86
2023/12/05 09:10:56;;;;;;;19.70;7.25;;;6.60;99.90;;;;;;4964459;28;20401;-86
2023/12/05 09:13:21;;;;;;;13.60;7.40;;;6.60;99.90;;;;;;4968843;28;20054;-88
2023/12/05 09:15:47;;;;;;;13.70;6.75;;;6.60;99.90;;;;;;4968872;28;20058;-88
2023/12/05 09:18:13;;;;;;;12.82;7.22;;;6.60;99.90;;;;;;4952342;28;20015;-88
2023/12/05 09:20:38;;;;;;;19.10;7.03;;;6.70;99.90;;;;;;4968290;28;20079;-88
2023/12/05 09:23:04;;;;;;;14.73;7.65;;;6.70;99.90;;;;;;4955332;28;20027;-87
2023/12/05 09:25:29;;;;;;;11.30;6.40;;;6.70;99.90;;;;;;4961154;28;20020;-87
2023/12/05 09:27:55;;;;;;;12.93;6.43;;;6.70;99.90;;;;;;4950608;28;20026;-86
2023/12/05 09:30:21;;;;;;;15.45;7.10;;;6.70;99.90;;;;;;4967308;28;20489;-88
2023/12/05 09:32:46;;;;;;;13.35;6.47;;;6.80;99.90;;;;;;4952161;28;20509;-87
2023/12/05 09:35:12;;;;;;;15.68;6.55;;;6.80;99.90;;;;;;4950367;28;20596;-87
2023/12/05 09:37:37;;;;;;;13.30;6.85;;;6.80;99.90;;;;;;4967535;28;20034;-88
2023/12/05 09:40:03;;;;;;;17.67;6.15;;;6.80;99.90;;;;;;4964510;28;20027;-88
2023/12/05 09:42:30;;;;;;;10.95;5.90;;;6.80;99.90;;;;;;4947476;28;20039;-88
2023/12/05 09:44:59;;;;;;;13.70;6.20;;;6.80;99.90;;;;;;4955154;28;20074;-88
2023/12/05 09:47:27;;;;;;;12.88;6.78;;;6.80;99.90;;;;;;4958579;28;20035;-88
2023/12/05 09:49:54;;;;;;;14.25;6.35;;;6.70;99.90;;;;;;4951782;28;20022;-86
2023/12/05 09:52:20;;;;;;;11.88;5.82;;;6.80;99.90;;;;;;4951016;28;20019;-88
2023/12/05 09:54:47;;;;;;;13.63;6.13;;;6.80;99.90;;;;;;4950600;28;20023;-88
2023/12/05 09:57:13;;;;;;;14.70;6.15;;;6.80;99.90;;;;;;4966177;28;20031;-87
2023/12/05 09:59:40;;;;;;;14.65;6.82;;;6.70;99.90;;;;;;4947553;28;20671;-89
2023/12/05 10:02:07;;;;;;;14.23;6.50;;;6.70;99.90;;;;;;4954630;28;20496;-89
2023/12/05 10:04:44;;;;;;;15.20;7.07;;;6.70;99.90;;;;;;4955479;28;20081;-88
2023/12/05 10:07:11;;;;;;;16.20;6.97;;;6.70;99.90;;;;;;4952042;28;20039;-87
2023/12/05 10:09:41;;;;;;;14.25;6.53;;;6.70;99.90;;;;;;4952250;28;20112;-88
2023/12/05 10:12:09;;;;;;;11.48;5.55;;;6.70;99.90;;;;;;4948003;28;20035;-87
2023/12/05 10:14:35;;;;;;;13.00;6.13;;;6.80;99.90;;;;;;4948139;28;20114;-87
2023/12/05 10:17:02;;;;;;;14.20;6.32;;;6.80;99.90;;;;;;4968032;28;20116;-87
2023/12/05 10:19:30;;;;;;;15.02;7.32;;;6.80;99.90;;;;;;4954360;28;20020;-88
2023/12/05 10:21:56;;;;;;;13.05;7.47;;;6.80;99.90;;;;;;4950326;28;20537;-86
2023/12/05 10:24:22;;;;;;;13.55;7.40;;;6.90;99.90;;;;;;4948355;28;20034;-87
2023/12/05 10:26:48;;;;;;;19.38;7.50;;;6.90;99.90;;;;;;4961343;28;20031;-88
2023/12/05 10:29:15;;;;;;;16.95;6.90;;;6.90;99.90;;;;;;4956371;28;20102;-87
2023/12/05 10:31:41;;;;;;;15.00;6.90;;;6.90;99.90;;;;;;4951436;28;20184;-87
2023/12/05 10:34:07;;;;;;;17.58;7.55;;;7.00;99.90;;;;;;4952695;28;20053;-88
2023/12/05 10:36:33;;;;;;;13.68;6.82;;;7.00;99.90;;;;;;4961040;28;20655;-87
2023/12/05 10:38:59;;;;;;;14.85;6.78;;;7.00;99.90;;;;;;4949956;28;20748;-87
2023/12/05 10:41:25;;;;;;;14.80;6.55;;;7.00;99.90;;;;;;4965930;28;20515;-87
2023/12/05 10:43:55;;;;;;;13.10;7.03;;;7.10;99.90;;;;;;4967680;28;20019;-88
2023/12/05 10:46:25;;;;;;;15.90;7.63;;;7.10;99.90;;;;;;4954081;28;20051;-87
2023/12/05 10:48:51;;;;;;;15.82;6.18;;;7.10;99.90;;;;;;4948582;29;20055;-86
2023/12/05 10:51:17;;;;;;;12.02;6.45;;;7.10;99.90;;;;;;4965507;28;20031;-87
2023/12/05 10:53:43;;;;;;;12.05;5.93;;;7.10;99.90;;;;;;4945047;29;20075;-88
2023/12/05 10:56:15;;;;;;;16.80;7.85;;;7.10;99.90;;;;;;4955603;28;20030;-88
2023/12/05 10:58:44;;;;;;;19.15;6.90;;;7.10;99.90;;;;;;4950124;28;20031;-86
2023/12/05 11:01:11;;;;;;;13.35;6.97;;;7.10;99.90;;;;;;4950208;29;20569;-89
2023/12/05 11:03:38;;;;;;;11.73;5.63;;;7.10;99.90;;;;;;4946302;28;20119;-88
2023/12/05 11:06:04;;;;;;;15.18;7.10;;;7.10;99.90;;;;;;4951360;28;20126;-87
2023/12/05 11:08:33;;;;;;;15.52;6.75;;;7.10;99.90;;;;;;4951678;28;20592;-87
2023/12/05 11:11:00;;;;;;;15.98;6.78;;;7.10;99.90;;;;;;4952777;28;20054;-88
2023/12/05 11:13:26;;;;;;;15.98;8.23;;;7.10;99.90;;;;;;4945244;28;20042;-88
2023/12/05 11:15:55;;;;;;;12.68;6.18;;;7.10;99.90;;;;;;4941144;28;20071;-88
2023/12/05 11:18:34;;;;;;;10.35;6.22;;;7.20;99.90;;;;;;4953514;28;20031;-88
2023/12/05 11:21:20;;;;;;;15.90;7.72;;;7.20;99.90;;;;;;4953041;28;20038;-85
2023/12/05 11:24:08;;;;;;;13.10;7.07;;;7.20;99.90;;;;;;4957783;28;20035;-89
2023/12/05 11:26:45;;;;;;;14.80;6.80;;;7.20;99.90;;;;;;4960945;28;20027;-89
2023/12/05 11:29:29;;;;;;;15.13;7.32;;;7.20;99.90;;;;;;4957957;28;20127;-87
2023/12/05 11:32:21;;;;;;;16.13;7.93;;;7.30;99.90;;;;;;4949435;29;20035;-87
2023/12/05 11:35:05;;;;;;;15.88;6.93;;;7.30;99.90;;;;;;4948016;28;20032;-88
2023/12/05 11:37:49;;;;;;;15.38;7.00;;;7.30;99.90;;;;;;4970163;28;20035;-88
2023/12/05 11:40:14;;;;;;;20.77;7.40;;;7.20;99.90;;;;;;4951747;28;20106;-87
2023/12/05 11:43:09;;;;;;;16.35;7.18;;;7.20;99.90;;;;;;4941732;28;20114;-88
2023/12/05 11:45:45;;;;;;;12.30;6.53;;;7.20;99.90;;;;;;4971975;28;20568;-89
2023/12/05 11:48:13;;;;;;;17.52;6.63;;;7.20;99.90;;;;;;4957859;28;20755;-89
2023/12/05 11:50:45;;;;;;;15.18;6.97;;;7.10;99.90;;;;;;4955045;28;20058;-88
2023/12/05 11:53:17;;;;;;;19.60;7.60;;;7.10;99.90;;;;;;4954100;28;20564;-88
2023/12/05 11:55:47;;;;;;;14.60;6.63;;;7.10;99.90;;;;;;4955442;28;20027;-88
2023/12/05 11:58:30;;;;;;;15.68;6.85;;;7.20;99.90;;;;;;4953918;28;20027;-89
2023/12/05 12:01:03;;;;;;;11.15;5.82;;;7.10;99.90;;;;;;4953798;28;20485;-88
2023/12/05 12:03:52;;;;;;;16.05;6.93;;;7.10;99.90;;;;;;4973738;28;20031;-88
2023/12/05 12:06:22;;;;;;;12.70;6.13;;;7.20;99.90;;;;;;4978178;28;20082;-88
2023/12/05 12:08:51;;;;;;;14.25;7.07;;;7.10;99.90;;;;;;4953956;28;20090;-88
2023/12/05 12:11:17;;;;;;;11.73;5.95;;;7.10;99.90;;;;;;4956854;28;20027;-88
2023/12/05 12:13:43;;;;;;;15.70;6.28;;;7.10;99.90;;;;;;4968860;28;20038;-88
2023/12/05 12:16:16;;;;;;;15.02;6.05;;;7.10;99.90;;;;;;4952738;28;20118;-87
2023/12/05 12:18:42;;;;;;;20.10;7.30;;;7.10;99.90;;;;;;4958347;28;20085;-87
2023/12/05 12:21:07;;;;;;;15.05;7.35;;;7.10;99.90;;;;;;4977025;28;20117;-87
2023/12/05 12:23:33;;;;;;;14.65;6.35;;;7.10;99.90;;;;;;4957515;28;20027;-90
2023/12/05 12:26:00;;;;;;;14.00;6.80;;;7.10;99.90;;;;;;4954094;28;20422;-87
2023/12/05 12:28:33;;;;;;;14.00;7.18;;;7.10;99.90;;;;;;4951368;28;20088;-88
2023/12/05 12:30:59;;;;;;;11.85;5.65;;;7.10;99.90;;;;;;4956126;28;20027;-89
2023/12/05 12:33:41;;;;;;;10.85;5.93;;;7.10;99.90;;;;;;4971396;28;20031;-89
2023/12/05 12:36:08;;;;;;;10.50;5.18;;;7.10;99.90;;;;;;4970373;28;20505;-89
2023/12/05 12:38:33;;;;;;;12.20;5.10;;;7.10;99.90;;;;;;4951043;28;20062;-89
2023/12/05 12:41:00;;;;;;;11.35;4.70;;;7.10;99.90;;;;;;4947055;28;20059;-88
2023/12/05 12:43:26;;;;;;;10.25;4.97;;;7.10;99.90;;;;;;4956547;28;20340;-89
2023/12/05 12:45:51;;;;;;;12.52;5.32;;;7.00;99.90;;;;;;4984650;28;20614;-87